^^
Your Local Weather - Clay, NY Station Historical Data
Daily Summary for November 5, 2017 Units:  English    Metric   Both
« Previous Day
Next Day »
Daily Weekly Monthly Yearly Custom
  High: Low: Average:
Temperature: 60.0 °F 44.2 °F 52.8 °F
Dew Point: 55.4 °F 33.2 °F 47.1 °F
Humidity: 93% 65% 81%
Wind Speed: 10.0mph 0.0mph 4.8mph
Wind Gust: 23.0mph - -
Wind- - SSE
Pressure: 30.16 in 29.75 in -
Precipitation: 0.81 in    
Historical Graphs
 
 
Tabular Data for November 5, 2017
Time Temperature Dew Point Pressure Wind Wind Speed Wind Gust Humidity Rainfall Rate (Hourly) solar
00:00 44.2 °F 33.2 °F 30.16 in East 3.0 mph 6.0 mph 65% 0.00 in 0 W/m2
00:06 44.3 °F 33.3 °F 30.16 in East 4.0 mph 6.0 mph 65% 0.00 in 0 W/m2
00:08 44.3 °F 33.7 °F 30.16 in East 3.0 mph 6.0 mph 66% 0.00 in 0 W/m2
00:14 44.2 °F 33.6 °F 30.16 in East 3.0 mph 5.0 mph 66% 0.00 in 0 W/m2
00:20 44.3 °F 33.7 °F 30.16 in SE 3.0 mph 3.0 mph 66% 0.00 in 0 W/m2
00:26 44.3 °F 33.7 °F 30.16 in NE 4.0 mph 5.0 mph 66% 0.00 in 0 W/m2
00:32 44.3 °F 33.7 °F 30.16 in East 4.0 mph 4.0 mph 66% 0.00 in 0 W/m2
00:38 44.3 °F 33.7 °F 30.16 in ENE 3.0 mph 5.0 mph 66% 0.00 in 0 W/m2
00:44 44.3 °F 33.7 °F 30.15 in ENE 3.0 mph 4.0 mph 66% 0.00 in 0 W/m2
00:50 44.4 °F 33.7 °F 30.14 in East 3.0 mph 3.0 mph 66% 0.00 in 0 W/m2
00:56 44.5 °F 33.8 °F 30.14 in ESE 3.0 mph 4.0 mph 66% 0.00 in 0 W/m2
01:02 44.5 °F 33.8 °F 30.14 in East 3.0 mph 3.0 mph 66% 0.00 in 0 W/m2
01:08 44.6 °F 33.9 °F 30.14 in East 2.0 mph 3.0 mph 66% 0.00 in 0 W/m2
01:14 44.8 °F 34.5 °F 30.14 in East 2.0 mph 3.0 mph 67% 0.00 in 0 W/m2
01:20 44.9 °F 34.2 °F 30.14 in ENE 2.0 mph 3.0 mph 66% 0.00 in 0 W/m2
01:26 44.9 °F 35.0 °F 30.14 in East 3.0 mph 3.0 mph 68% 0.00 in 0 W/m2
01:32 45.0 °F 35.1 °F 30.14 in East 2.0 mph 2.0 mph 68% 0.00 in 0 W/m2
01:38 45.1 °F 35.2 °F 30.14 in SE 3.0 mph 3.0 mph 68% 0.00 in 0 W/m2
01:44 45.0 °F 35.1 °F 30.14 in East 3.0 mph 5.0 mph 68% 0.00 in 0 W/m2
01:50 45.0 °F 35.4 °F 30.14 in East 3.0 mph 3.0 mph 69% 0.00 in 0 W/m2
01:56 44.9 °F 35.7 °F 30.14 in SE 2.0 mph 3.0 mph 70% 0.00 in 0 W/m2
01:02 45.0 °F 35.8 °F 30.14 in East 3.0 mph 5.0 mph 70% 0.00 in 0 W/m2
01:08 45.0 °F 35.8 °F 30.14 in East 2.0 mph 5.0 mph 70% 0.00 in 0 W/m2
01:14 44.9 °F 36.1 °F 30.14 in SE 3.0 mph 7.0 mph 71% 0.00 in 0 W/m2
01:20 44.8 °F 36.0 °F 30.14 in ENE 4.0 mph 4.0 mph 71% 0.00 in 0 W/m2
01:26 44.9 °F 36.1 °F 30.14 in ENE 2.0 mph 4.0 mph 71% 0.00 in 0 W/m2
01:32 45.1 °F 36.3 °F 30.14 in East 2.0 mph 3.0 mph 71% 0.00 in 0 W/m2
01:38 45.1 °F 36.6 °F 30.14 in ENE 2.0 mph 4.0 mph 72% 0.00 in 0 W/m2
01:44 45.2 °F 36.7 °F 30.14 in ENE 2.0 mph 2.0 mph 72% 0.00 in 0 W/m2
01:50 45.4 °F 36.5 °F 30.14 in ENE 3.0 mph 3.0 mph 71% 0.00 in 0 W/m2
01:56 45.6 °F 36.7 °F 30.14 in ENE 3.0 mph 3.0 mph 71% 0.00 in 0 W/m2
02:02 46.0 °F 37.1 °F 30.13 in SE 3.0 mph 4.0 mph 71% 0.00 in 0 W/m2
02:08 47.3 °F 38.4 °F 30.13 in SE 3.0 mph 6.0 mph 71% 0.00 in 0 W/m2
02:14 48.3 °F 38.2 °F 30.13 in SE 4.0 mph 8.0 mph 68% 0.00 in 0 W/m2
02:20 49.1 °F 38.6 °F 30.14 in SE 4.0 mph 8.0 mph 67% 0.00 in 0 W/m2
02:26 49.5 °F 39.0 °F 30.13 in SE 5.0 mph 8.0 mph 67% 0.00 in 0 W/m2
02:32 49.6 °F 39.5 °F 30.12 in SE 5.0 mph 6.0 mph 68% 0.00 in 0 W/m2
02:38 49.7 °F 39.6 °F 30.12 in SE 8.0 mph 8.0 mph 68% 0.00 in 0 W/m2
02:44 49.7 °F 39.9 °F 30.11 in ESE 7.0 mph 8.0 mph 69% 0.00 in 0 W/m2
02:50 49.9 °F 40.1 °F 30.12 in East 8.0 mph 8.0 mph 69% 0.00 in 0 W/m2
02:56 50.0 °F 40.2 °F 30.12 in SSE 8.0 mph 12.0 mph 69% 0.00 in 0 W/m2
03:02 50.1 °F 40.7 °F 30.13 in SSE 5.0 mph 9.0 mph 70% 0.00 in 0 W/m2
03:08 50.2 °F 40.8 °F 30.13 in SSE 6.0 mph 9.0 mph 70% 0.00 in 0 W/m2
03:14 50.3 °F 40.9 °F 30.13 in SE 6.0 mph 8.0 mph 70% 0.00 in 0 W/m2
03:20 50.3 °F 40.9 °F 30.13 in SSE 6.0 mph 6.0 mph 70% 0.00 in 0 W/m2
03:26 50.4 °F 41.0 °F 30.12 in SE 5.0 mph 8.0 mph 70% 0.00 in 0 W/m2
03:32 50.5 °F 41.4 °F 30.13 in SSE 6.0 mph 6.0 mph 71% 0.00 in 0 W/m2
03:38 50.5 °F 41.4 °F 30.13 in SSE 6.0 mph 6.0 mph 71% 0.00 in 0 W/m2
03:44 50.5 °F 41.4 °F 30.13 in South 6.0 mph 6.0 mph 71% 0.00 in 0 W/m2
03:50 50.5 °F 41.8 °F 30.13 in SSE 5.0 mph 7.0 mph 72% 0.00 in 0 W/m2
03:56 50.5 °F 41.8 °F 30.12 in SE 5.0 mph 7.0 mph 72% 0.00 in 0 W/m2
04:02 50.4 °F 41.7 °F 30.13 in SSE 4.0 mph 6.0 mph 72% 0.00 in 0 W/m2
04:08 50.4 °F 42.1 °F 30.12 in South 4.0 mph 6.0 mph 73% 0.00 in 0 W/m2
04:14 50.0 °F 42.4 °F 30.13 in SSE 4.0 mph 5.0 mph 75% 0.00 in 0 W/m2
04:20 49.5 °F 42.6 °F 30.12 in SSE 4.0 mph 6.0 mph 77% 0.00 in 0 W/m2
04:22 49.4 °F 42.8 °F 30.12 in South 4.0 mph 6.0 mph 78% 0.05 in 0 W/m2
04:28 48.9 °F 43.3 °F 30.12 in SSE 5.0 mph 6.0 mph 81% 0.19 in 0 W/m2
04:34 48.6 °F 43.4 °F 30.12 in SSE 5.0 mph 7.0 mph 82% 0.07 in 0 W/m2
04:40 48.3 °F 43.4 °F 30.12 in SSE 4.0 mph 7.0 mph 83% 0.15 in 0 W/m2
04:46 48.0 °F 43.4 °F 30.11 in SSE 5.0 mph 7.0 mph 84% 0.20 in 0 W/m2
04:52 47.9 °F 43.9 °F 30.11 in SE 6.0 mph 9.0 mph 86% 0.15 in 0 W/m2
04:58 47.7 °F 44.0 °F 30.09 in South 8.0 mph 13.0 mph 87% 0.30 in 0 W/m2
05:04 47.5 °F 43.8 °F 30.09 in SSE 8.0 mph 9.0 mph 87% 0.27 in 0 W/m2
05:10 47.4 °F 44.0 °F 30.10 in SSE 7.0 mph 7.0 mph 88% 0.16 in 0 W/m2
05:16 47.3 °F 44.2 °F 30.10 in South 7.0 mph 10.0 mph 89% 0.29 in 0 W/m2
05:22 47.3 °F 44.2 °F 30.11 in SSE 6.0 mph 7.0 mph 89% 0.22 in 0 W/m2
05:28 47.3 °F 44.2 °F 30.10 in South 6.0 mph 9.0 mph 89% 0.35 in 0 W/m2
05:34 47.3 °F 44.2 °F 30.09 in SSE 6.0 mph 10.0 mph 89% 0.27 in 0 W/m2
05:40 47.3 °F 44.5 °F 30.09 in SSE 6.0 mph 9.0 mph 90% 0.20 in 0 W/m2
05:46 47.4 °F 44.6 °F 30.08 in ESE 6.0 mph 9.0 mph 90% 0.23 in 0 W/m2
05:52 47.4 °F 44.6 °F 30.08 in SSE 6.0 mph 11.0 mph 90% 0.26 in 0 W/m2
05:58 47.4 °F 44.6 °F 30.08 in SSE 6.0 mph 11.0 mph 90% 0.15 in 0 W/m2
06:04 47.3 °F 44.8 °F 30.07 in SSE 4.0 mph 6.0 mph 91% 0.07 in 0 W/m2
06:10 47.4 °F 44.9 °F 30.08 in SSW 5.0 mph 5.0 mph 91% 0.04 in 0 W/m2
06:16 47.5 °F 45.0 °F 30.08 in SE 5.0 mph 7.0 mph 91% 0.00 in 0 W/m2
06:22 47.5 °F 45.0 °F 30.08 in SE 4.0 mph 5.0 mph 91% 0.00 in 0 W/m2
06:28 47.5 °F 45.0 °F 30.07 in SE 4.0 mph 10.0 mph 91% 0.00 in 0 W/m2
06:34 47.6 °F 45.1 °F 30.07 in SE 5.0 mph 6.0 mph 91% 0.00 in 0 W/m2
06:40 47.9 °F 45.4 °F 30.07 in SSE 5.0 mph 6.0 mph 91% 0.00 in 0 W/m2
06:46 47.9 °F 45.4 °F 30.07 in East 4.0 mph 6.0 mph 91% 0.00 in 0 W/m2
06:52 47.9 °F 45.4 °F 30.07 in SE 3.0 mph 3.0 mph 91% 0.00 in 0 W/m2
06:58 48.0 °F 45.5 °F 30.08 in SE 2.0 mph 4.0 mph 91% 0.00 in 0 W/m2
07:04 48.0 °F 45.5 °F 30.08 in ESE 3.0 mph 4.0 mph 91% 0.10 in 0 W/m2
07:10 48.0 °F 45.5 °F 30.07 in SSE 2.0 mph 4.0 mph 91% 0.07 in 0 W/m2
07:16 48.1 °F 45.6 °F 30.07 in South 2.0 mph 4.0 mph 91% 0.32 in 0 W/m2
07:22 48.4 °F 45.9 °F 30.07 in East 3.0 mph 6.0 mph 91% 0.13 in 0 W/m2
07:28 48.6 °F 46.1 °F 30.07 in SSE 4.0 mph 6.0 mph 91% 0.06 in 7 W/m2
07:34 48.9 °F 46.1 °F 30.07 in SSE 4.0 mph 12.0 mph 90% 0.04 in 14 W/m2
07:40 49.4 °F 46.3 °F 30.07 in SE 5.0 mph 7.0 mph 89% 0.00 in 14 W/m2
07:46 49.6 °F 46.2 °F 30.06 in ESE 5.0 mph 10.0 mph 88% 0.00 in 25 W/m2
07:52 49.8 °F 46.1 °F 30.06 in South 5.0 mph 5.0 mph 87% 0.00 in 28 W/m2
07:58 50.0 °F 46.3 °F 30.06 in SE 5.0 mph 7.0 mph 87% 0.00 in 35 W/m2
08:04 50.2 °F 46.2 °F 30.06 in SSE 5.0 mph 10.0 mph 86% 0.00 in 46 W/m2
08:10 50.5 °F 46.5 °F 30.06 in SSE 6.0 mph 6.0 mph 86% 0.00 in 42 W/m2
08:16 50.7 °F 46.4 °F 30.05 in SE 6.0 mph 8.0 mph 85% 0.00 in 46 W/m2
08:22 50.7 °F 46.7 °F 30.05 in SSE 5.0 mph 5.0 mph 86% 0.00 in 51 W/m2
08:28 51.0 °F 46.6 °F 30.06 in SE 4.0 mph 6.0 mph 85% 0.00 in 54 W/m2
08:32 51.1 °F 46.7 °F 30.05 in South 4.0 mph 8.0 mph 85% 0.00 in 40 W/m2
08:38 51.4 °F 46.7 °F 30.04 in SSE 6.0 mph 12.0 mph 84% 0.00 in 63 W/m2
08:44 51.5 °F 46.8 °F 30.04 in SSE 7.0 mph 8.0 mph 84% 0.00 in 62 W/m2
08:50 51.7 °F 46.7 °F 30.04 in SE 7.0 mph 7.0 mph 83% 0.00 in 60 W/m2
08:56 51.8 °F 46.8 °F 30.04 in SE 6.0 mph 9.0 mph 83% 0.00 in 123 W/m2
09:02 52.0 °F 47.0 °F 30.04 in SSE 5.0 mph 10.0 mph 83% 0.00 in 141 W/m2
09:08 52.3 °F 47.0 °F 30.05 in SSE 6.0 mph 10.0 mph 82% 0.00 in 49 W/m2
09:14 52.4 °F 47.1 °F 30.05 in SSE 6.0 mph 10.0 mph 82% 0.00 in 35 W/m2
09:20 52.3 °F 47.0 °F 30.04 in SSW 5.0 mph 6.0 mph 82% 0.00 in 35 W/m2
09:26 52.4 °F 47.1 °F 30.04 in SE 4.0 mph 6.0 mph 82% 0.00 in 74 W/m2
09:32 52.7 °F 47.0 °F 30.04 in SE 5.0 mph 9.0 mph 81% 0.00 in 58 W/m2
09:38 53.0 °F 47.0 °F 30.03 in SSE 5.0 mph 9.0 mph 80% 0.00 in 32 W/m2
09:44 53.1 °F 47.1 °F 30.03 in SSW 4.0 mph 5.0 mph 80% 0.00 in 39 W/m2
09:50 53.2 °F 47.2 °F 30.03 in SSE 5.0 mph 5.0 mph 80% 0.00 in 25 W/m2
09:56 53.2 °F 47.2 °F 30.03 in SE 4.0 mph 7.0 mph 80% 0.00 in 28 W/m2
10:02 53.2 °F 47.2 °F 30.02 in South 5.0 mph 8.0 mph 80% 0.00 in 54 W/m2
10:08 53.4 °F 47.4 °F 30.02 in South 5.0 mph 8.0 mph 80% 0.00 in 44 W/m2
10:14 53.4 °F 47.4 °F 30.01 in SE 5.0 mph 8.0 mph 80% 0.00 in 39 W/m2
10:20 53.4 °F 47.4 °F 30.01 in SSE 5.0 mph 5.0 mph 80% 0.00 in 53 W/m2
10:26 53.6 °F 47.2 °F 30.00 in SSE 5.0 mph 9.0 mph 79% 0.00 in 62 W/m2
10:32 53.9 °F 47.5 °F 30.00 in South 6.0 mph 11.0 mph 79% 0.00 in 76 W/m2
10:38 54.1 °F 47.4 °F 29.99 in SSE 7.0 mph 11.0 mph 78% 0.00 in 97 W/m2
10:44 54.2 °F 47.8 °F 30.00 in South 5.0 mph 6.0 mph 79% 0.00 in 62 W/m2
10:50 54.4 °F 47.7 °F 30.00 in ESE 4.0 mph 7.0 mph 78% 0.00 in 58 W/m2
10:56 54.5 °F 47.8 °F 30.00 in South 4.0 mph 11.0 mph 78% 0.00 in 53 W/m2
11:02 54.7 °F 48.0 °F 30.00 in SSE 5.0 mph 8.0 mph 78% 0.00 in 51 W/m2
11:08 54.9 °F 48.2 °F 30.00 in South 6.0 mph 8.0 mph 78% 0.00 in 58 W/m2
11:14 55.1 °F 48.0 °F 29.99 in South 7.0 mph 7.0 mph 77% 0.00 in 62 W/m2
11:20 55.2 °F 47.8 °F 29.98 in South 8.0 mph 9.0 mph 76% 0.00 in 67 W/m2
11:26 55.3 °F 48.2 °F 29.98 in SW 9.0 mph 10.0 mph 77% 0.00 in 63 W/m2
11:32 55.4 °F 48.3 °F 29.98 in South 9.0 mph 10.0 mph 77% 0.00 in 51 W/m2
11:38 55.6 °F 48.2 °F 29.98 in SSW 10.0 mph 23.0 mph 76% 0.00 in 63 W/m2
11:44 55.8 °F 48.3 °F 29.98 in SSE 10.0 mph 16.0 mph 76% 0.00 in 65 W/m2
11:50 55.9 °F 48.4 °F 29.98 in South 9.0 mph 9.0 mph 76% 0.00 in 49 W/m2
11:56 55.7 °F 48.6 °F 29.97 in SSE 7.0 mph 10.0 mph 77% 0.00 in 69 W/m2
12:02 55.6 °F 48.5 °F 29.96 in South 7.0 mph 8.0 mph 77% 0.00 in 69 W/m2
12:08 55.8 °F 48.3 °F 29.96 in SSE 7.0 mph 10.0 mph 76% 0.00 in 53 W/m2
12:14 55.9 °F 48.4 °F 29.96 in South 8.0 mph 9.0 mph 76% 0.00 in 42 W/m2
12:20 56.0 °F 48.5 °F 29.95 in SE 8.0 mph 8.0 mph 76% 0.00 in 49 W/m2
12:26 56.0 °F 48.5 °F 29.95 in South 8.0 mph 8.0 mph 76% 0.00 in 53 W/m2
12:32 56.1 °F 48.6 °F 29.95 in South 7.0 mph 7.0 mph 76% 0.00 in 53 W/m2
12:38 56.2 °F 48.4 °F 29.95 in SE 6.0 mph 11.0 mph 75% 0.00 in 35 W/m2
12:44 56.3 °F 48.8 °F 29.95 in SSW 7.0 mph 7.0 mph 76% 0.00 in 42 W/m2
12:50 56.3 °F 48.8 °F 29.94 in SE 7.0 mph 7.0 mph 76% 0.00 in 49 W/m2
12:56 56.4 °F 48.9 °F 29.95 in South 8.0 mph 14.0 mph 76% 0.00 in 23 W/m2
13:02 56.3 °F 48.8 °F 29.95 in SSE 7.0 mph 12.0 mph 76% 0.00 in 21 W/m2
13:08 56.0 °F 49.2 °F 29.95 in South 7.0 mph 12.0 mph 78% 0.00 in 16 W/m2
13:14 55.7 °F 49.3 °F 29.94 in SSW 5.0 mph 6.0 mph 79% 0.00 in 14 W/m2
13:20 55.7 °F 49.6 °F 29.93 in South 5.0 mph 5.0 mph 80% 0.00 in 28 W/m2
13:22 55.7 °F 49.6 °F 29.93 in SSE 6.0 mph 6.0 mph 80% 0.00 in 32 W/m2
13:34 55.5 °F 49.8 °F 29.92 in SSW 6.0 mph 7.0 mph 81% 0.07 in 28 W/m2
13:40 55.3 °F 49.9 °F 29.91 in SSE 6.0 mph 7.0 mph 82% 0.09 in 39 W/m2
13:46 55.1 °F 50.0 °F 29.91 in SSE 8.0 mph 8.0 mph 83% 0.05 in 56 W/m2
13:52 54.9 °F 49.8 °F 29.91 in SSE 7.0 mph 7.0 mph 83% 0.00 in 63 W/m2
14:04 55.0 °F 49.9 °F 29.90 in SSW 10.0 mph 13.0 mph 83% 0.00 in 58 W/m2
14:10 55.0 °F 50.3 °F 29.90 in South 9.0 mph 10.0 mph 84% 0.00 in 40 W/m2
14:16 55.0 °F 50.3 °F 29.90 in SE 9.0 mph 10.0 mph 84% 0.00 in 30 W/m2
14:22 55.0 °F 50.3 °F 29.89 in SSE 8.0 mph 9.0 mph 84% 0.00 in 35 W/m2
14:28 55.2 °F 50.4 °F 29.89 in South 8.0 mph 13.0 mph 84% 0.00 in 47 W/m2
14:34 55.2 °F 50.4 °F 29.90 in South 7.0 mph 8.0 mph 84% 0.00 in 28 W/m2
14:46 55.2 °F 50.8 °F 29.90 in South 7.0 mph 14.0 mph 85% 0.00 in 25 W/m2
14:52 55.2 °F 50.8 °F 29.89 in South 8.0 mph 8.0 mph 85% 0.00 in 16 W/m2
14:56 55.1 °F 51.0 °F 29.89 in South 8.0 mph 8.0 mph 86% 0.21 in 12 W/m2
15:02 55.0 °F 51.2 °F 29.90 in SSW 9.0 mph 9.0 mph 87% 0.15 in 7 W/m2
15:08 54.8 °F 51.0 °F 29.89 in SSE 8.0 mph 10.0 mph 87% 0.08 in 21 W/m2
15:14 55.0 °F 51.5 °F 29.89 in South 7.0 mph 10.0 mph 88% 0.05 in 21 W/m2
15:20 55.3 °F 51.5 °F 29.89 in SSW 7.0 mph 7.0 mph 87% 0.00 in 16 W/m2
15:26 55.4 °F 51.6 °F 29.89 in SSE 7.0 mph 7.0 mph 87% 0.00 in 25 W/m2
15:32 55.5 °F 51.4 °F 29.88 in South 6.0 mph 10.0 mph 86% 0.00 in 12 W/m2
15:38 55.6 °F 51.5 °F 29.89 in South 6.0 mph 10.0 mph 86% 0.00 in 7 W/m2
15:44 55.5 °F 51.4 °F 29.88 in SSE 6.0 mph 7.0 mph 86% 0.00 in 5 W/m2
15:50 55.6 °F 51.5 °F 29.88 in South 6.0 mph 6.0 mph 86% 0.00 in 9 W/m2
15:56 55.6 °F 51.8 °F 29.88 in South 6.0 mph 13.0 mph 87% 0.08 in 7 W/m2
16:03 55.5 °F 51.7 °F 29.88 in South 6.0 mph 7.0 mph 87% 0.06 in 12 W/m2
16:08 55.6 °F 51.8 °F 29.88 in SSE 5.0 mph 7.0 mph 87% 0.04 in 11 W/m2
16:14 55.7 °F 51.9 °F 29.87 in South 6.0 mph 6.0 mph 87% 0.04 in 5 W/m2
16:20 55.9 °F 52.1 °F 29.88 in South 5.0 mph 5.0 mph 87% 0.04 in 0 W/m2
16:26 56.0 °F 52.2 °F 29.87 in SSE 5.0 mph 9.0 mph 87% 0.00 in 0 W/m2
16:32 56.3 °F 52.2 °F 29.87 in South 6.0 mph 6.0 mph 86% 0.00 in 0 W/m2
16:38 56.4 °F 52.3 °F 29.87 in SSW 5.0 mph 9.0 mph 86% 0.00 in 0 W/m2
16:44 56.6 °F 52.5 °F 29.87 in SSW 5.0 mph 7.0 mph 86% 0.00 in 0 W/m2
16:50 56.8 °F 52.3 °F 29.87 in SSW 7.0 mph 7.0 mph 85% 0.00 in 0 W/m2
16:56 56.9 °F 52.4 °F 29.87 in SSE 6.0 mph 7.0 mph 85% 0.00 in 0 W/m2
17:02 57.0 °F 52.5 °F 29.86 in SSW 5.0 mph 5.0 mph 85% 0.00 in 0 W/m2
17:08 57.0 °F 52.5 °F 29.86 in SSE 5.0 mph 5.0 mph 85% 0.00 in 0 W/m2
17:14 56.8 °F 52.3 °F 29.86 in SSE 5.0 mph 6.0 mph 85% 0.00 in 0 W/m2
17:20 56.7 °F 52.6 °F 29.86 in SSW 4.0 mph 5.0 mph 86% 0.00 in 0 W/m2
17:26 57.0 °F 52.5 °F 29.86 in South 5.0 mph 11.0 mph 85% 0.00 in 0 W/m2
17:32 56.8 °F 52.7 °F 29.85 in SSE 5.0 mph 6.0 mph 86% 0.00 in 0 W/m2
17:38 56.9 °F 52.8 °F 29.86 in South 5.0 mph 6.0 mph 86% 0.00 in 0 W/m2
17:44 56.9 °F 52.8 °F 29.86 in South 5.0 mph 6.0 mph 86% 0.00 in 0 W/m2
17:50 57.0 °F 52.9 °F 29.86 in SSW 4.0 mph 4.0 mph 86% 0.00 in 0 W/m2
17:56 57.1 °F 52.6 °F 29.86 in SSE 2.0 mph 4.0 mph 85% 0.00 in 0 W/m2
18:02 57.4 °F 52.9 °F 29.85 in SSE 4.0 mph 5.0 mph 85% 0.00 in 0 W/m2
18:08 57.6 °F 52.8 °F 29.85 in South 5.0 mph 5.0 mph 84% 0.00 in 0 W/m2
18:14 57.7 °F 52.9 °F 29.85 in SE 4.0 mph 11.0 mph 84% 0.00 in 0 W/m2
18:20 57.9 °F 52.8 °F 29.85 in SSE 6.0 mph 6.0 mph 83% 0.00 in 0 W/m2
18:26 58.0 °F 52.9 °F 29.84 in SSW 6.0 mph 6.0 mph 83% 0.00 in 0 W/m2
18:38 58.0 °F 52.9 °F 29.83 in SSE 5.0 mph 9.0 mph 83% 0.00 in 0 W/m2
18:44 58.1 °F 53.0 °F 29.83 in SSW 7.0 mph 12.0 mph 83% 0.00 in 0 W/m2
18:50 58.2 °F 53.1 °F 29.83 in SSE 7.0 mph 14.0 mph 83% 0.00 in 0 W/m2
18:56 58.3 °F 53.2 °F 29.82 in SSW 7.0 mph 14.0 mph 83% 0.00 in 0 W/m2
19:03 58.2 °F 53.1 °F 29.82 in SSE 7.0 mph 7.0 mph 83% 0.00 in 0 W/m2
19:08 58.2 °F 53.4 °F 29.82 in South 6.0 mph 7.0 mph 84% 0.00 in 0 W/m2
19:14 58.4 °F 53.3 °F 29.82 in South 6.0 mph 7.0 mph 83% 0.00 in 0 W/m2
19:20 58.3 °F 53.2 °F 29.82 in WSW 5.0 mph 5.0 mph 83% 0.00 in 0 W/m2
19:26 58.4 °F 53.3 °F 29.82 in SSE 5.0 mph 8.0 mph 83% 0.00 in 0 W/m2
19:32 58.6 °F 53.5 °F 29.82 in SSE 7.0 mph 7.0 mph 83% 0.00 in 0 W/m2
19:38 58.6 °F 53.5 °F 29.82 in SSE 6.0 mph 9.0 mph 83% 0.00 in 0 W/m2
19:44 58.9 °F 53.7 °F 29.82 in SE 7.0 mph 11.0 mph 83% 0.00 in 0 W/m2
19:56 59.0 °F 53.8 °F 29.82 in South 6.0 mph 10.0 mph 83% 0.00 in 0 W/m2
20:02 59.1 °F 53.9 °F 29.82 in SSE 7.0 mph 10.0 mph 83% 0.00 in 0 W/m2
20:14 59.2 °F 54.0 °F 29.81 in South 6.0 mph 9.0 mph 83% 0.00 in 0 W/m2
20:20 59.3 °F 54.1 °F 29.81 in South 6.0 mph 11.0 mph 83% 0.00 in 0 W/m2
20:26 59.4 °F 54.2 °F 29.81 in SSW 6.0 mph 11.0 mph 83% 0.00 in 0 W/m2
20:32 59.4 °F 54.2 °F 29.81 in SW 5.0 mph 7.0 mph 83% 0.00 in 0 W/m2
20:38 59.5 °F 54.3 °F 29.80 in SSE 5.0 mph 7.0 mph 83% 0.00 in 0 W/m2
20:44 59.6 °F 54.4 °F 29.80 in SSE 4.0 mph 8.0 mph 83% 0.00 in 0 W/m2
20:50 59.7 °F 54.2 °F 29.80 in SE 5.0 mph 6.0 mph 82% 0.00 in 0 W/m2
20:56 59.9 °F 54.4 °F 29.80 in South 5.0 mph 6.0 mph 82% 0.00 in 0 W/m2
21:02 60.0 °F 54.5 °F 29.83 in WSW 4.0 mph 5.0 mph 82% 0.00 in 0 W/m2
21:08 59.9 °F 55.1 °F 29.83 in WNW 2.0 mph 5.0 mph 84% 0.43 in 0 W/m2
21:14 59.5 °F 55.0 °F 29.83 in NW 1.0 mph 2.0 mph 85% 0.11 in 0 W/m2
21:20 58.9 °F 54.7 °F 29.82 in NW 1.0 mph 1.0 mph 86% 0.09 in 0 W/m2
21:26 58.4 °F 54.5 °F 29.81 in Calm   1.0 mph 87% 0.05 in 0 W/m2
21:32 57.9 °F 54.7 °F 29.80 in Calm   1.0 mph 89% 0.04 in 0 W/m2
21:38 57.6 °F 54.4 °F 29.81 in SW 1.0 mph 1.0 mph 89% 0.08 in 0 W/m2
21:44 57.4 °F 54.5 °F 29.80 in Calm     90% 0.07 in 0 W/m2
21:50 57.2 °F 54.3 °F 29.79 in Calm     90% 0.09 in 0 W/m2
21:56 57.0 °F 54.4 °F 29.79 in Calm   1.0 mph 91% 0.09 in 0 W/m2
22:02 57.2 °F 54.6 °F 29.79 in SSE 1.0 mph 1.0 mph 91% 0.05 in 0 W/m2
22:08 57.4 °F 54.8 °F 29.79 in South 1.0 mph 2.0 mph 91% 0.04 in 0 W/m2
22:22 57.7 °F 55.1 °F 29.78 in South 1.0 mph 1.0 mph 91% 0.07 in 0 W/m2
22:28 57.9 °F 55.3 °F 29.79 in SW 1.0 mph 1.0 mph 91% 0.18 in 0 W/m2
22:30 58.0 °F 55.4 °F 29.79 in SW 1.0 mph 1.0 mph 91% 0.17 in 0 W/m2
22:34 58.0 °F 55.4 °F 29.80 in SW 1.0 mph 1.0 mph 91% 0.21 in 0 W/m2
22:40 57.9 °F 55.3 °F 29.79 in Calm     91% 0.17 in 0 W/m2
22:46 57.7 °F 55.1 °F 29.80 in Calm   1.0 mph 91% 0.07 in 0 W/m2
22:52 57.5 °F 54.9 °F 29.81 in WNW 1.0 mph 4.0 mph 91% 0.05 in 0 W/m2
22:58 57.4 °F 54.8 °F 29.80 in WNW 1.0 mph 4.0 mph 91% 0.86 in 0 W/m2
23:04 57.3 °F 55.0 °F 29.80 in Calm   1.0 mph 92% 0.17 in 0 W/m2
23:10 57.1 °F 54.8 °F 29.78 in Calm     92% 0.08 in 0 W/m2
23:16 56.9 °F 54.6 °F 29.77 in WNW 1.0 mph 2.0 mph 92% 0.08 in 0 W/m2
23:22 57.0 °F 54.7 °F 29.77 in SE 2.0 mph 3.0 mph 92% 0.04 in 0 W/m2
23:28 57.1 °F 54.8 °F 29.76 in SE 2.0 mph 3.0 mph 92% 0.00 in 0 W/m2
23:34 57.0 °F 54.7 °F 29.75 in SE 1.0 mph 3.0 mph 92% 0.00 in 0 W/m2
23:40 57.0 °F 54.7 °F 29.75 in SE 1.0 mph 2.0 mph 92% 0.00 in 0 W/m2
23:46 57.0 °F 55.0 °F 29.75 in SE 2.0 mph 2.0 mph 93% 0.00 in 0 W/m2
23:50 57.0 °F 55.0 °F 29.76 in SE 1.0 mph 1.0 mph 93% 0.00 in 0 W/m2
23:56 57.0 °F 55.0 °F 29.76 in Calm   1.0 mph 93% 0.00 in 0 W/m2
Country Meadow, Clay, NY, USA
Compliments of Weather Underground - 2 mb